CYZY

Mackenzie Airport

Mackenzie, British Columbia, Canada
METAR CYZY 182000Z AUTO 15003KT 9SM CLR M09/M10 A2988 RMK SLP167
Observed Flight Rules
Dec-18 @ 20:00 UTC (21 minutes ago) Visual Flight Rules
Wind Visibility Clouds
150° at 3 knots 9 miles
  • Clear skies
Temperatures Readings
Current -9°C / 16°F
Dewpoint -10°C / 14°F
Humidity 93%
Altimeter 29.88" Hg
Pressure 1016.7 hPa
Elevation 690
METAR CYZY 182000Z AUTO 15003KT 9SM CLR M09/M10 A2988 RMK SLP167
Observed Flight Rules
Dec-18 @ 20:00 UTC
(21 minutes ago)
VFR
Wind Visibility
150° at 3 knots 9 miles
Clouds
  • Clear skies
Temperature Dewpoint
-9°C / 16°F -10°C / 14°F
Humidity Altimeter Pressure
93% 29.88" Hg 1016.7 hPa